Time;durP1;ratioP1;P1;durP2;ratioP2;P2;SDS_P1;SDS_P2;PMS_P1;PMS_P2;Temp;Humidity;BMP_temperature;BMP_pressure;BME280_temperature;BME280_humidity;BME280_pressure;Samples;Min_cycle;Max_cycle;Signal;HPM_P1;HPM_P2
2022/10/13 00:00:22;;;;;;;;;17.00;17.00;;;;;16.23;58.18;101509.56;4961010;28;45443;-75
2022/10/13 00:02:47;;;;;;;;;18.67;16.00;;;;;16.72;58.11;101594.63;4960568;28;45181;-75
2022/10/13 00:05:13;;;;;;;;;20.00;19.00;;;;;16.89;58.22;101622.38;4959610;28;45225;-76
2022/10/13 00:07:38;;;;;;;;;16.00;15.33;;;;;16.58;58.19;101570.22;4960460;28;45294;-76
2022/10/13 00:10:04;;;;;;;;;19.67;16.67;;;;;16.48;58.56;101561.47;4960120;28;52639;-75
2022/10/13 00:12:29;;;;;;;;;17.00;16.67;;;;;16.38;58.52;101550.84;4959098;28;45466;-73
2022/10/13 00:14:54;;;;;;;;;16.33;16.33;;;;;16.57;58.40;101579.25;4959337;28;45354;-71
2022/10/13 00:17:20;;;;;;;;;17.00;15.33;;;;;16.26;58.80;101534.22;4942364;28;47618;-74
2022/10/13 00:19:45;;;;;;;;;17.67;15.33;;;;;16.66;58.68;101606.03;4959888;28;45484;-75
2022/10/13 00:22:11;;;;;;;;;15.00;12.00;;;;;16.46;58.92;101577.72;4974990;28;45376;-74
2022/10/13 00:24:36;;;;;;;;;18.00;16.67;;;;;16.73;58.85;101617.78;4975451;28;45483;-75
2022/10/13 00:27:01;;;;;;;;;15.67;14.67;;;;;16.42;58.47;101560.28;4960339;28;46836;-73
2022/10/13 00:29:27;;;;;;;;;16.67;15.00;;;;;16.70;58.94;101596.63;4976913;28;46149;-73
2022/10/13 00:31:52;;;;;;;;;21.00;18.67;;;;;16.77;59.03;101609.41;4963532;28;45487;-76
2022/10/13 00:34:17;;;;;;;;;19.00;18.00;;;;;16.75;58.83;101590.78;4980306;28;45251;-72
2022/10/13 00:36:43;;;;;;;;;18.67;17.67;;;;;16.80;58.44;101588.41;4962486;28;47713;-74
2022/10/13 00:39:08;;;;;;;;;19.00;16.33;;;;;16.55;58.78;101551.75;4959684;28;45384;-75
2022/10/13 00:41:33;;;;;;;;;20.33;17.33;;;;;16.75;58.80;101587.25;4959735;28;45443;-74
2022/10/13 00:44:05;;;;;;;;;17.00;15.67;;;;;16.69;58.98;101576.16;4960340;28;45428;-74
2022/10/13 00:46:33;;;;;;;;;19.33;18.67;;;;;16.59;59.33;101562.00;4974454;28;48687;-73
2022/10/13 00:49:08;;;;;;;;;19.33;16.33;;;;;15.95;59.19;101464.16;4959220;28;45313;-75
2022/10/13 00:51:39;;;;;;;;;17.00;16.67;;;;;15.51;59.19;101383.00;4958408;28;45339;-74
2022/10/13 00:54:08;;;;;;;;;23.00;19.00;;;;;16.07;59.20;101476.28;4975240;28;45527;-77
2022/10/13 00:56:35;;;;;;;;;19.33;15.67;;;;;16.60;58.84;101573.56;4959629;28;45635;-74
2022/10/13 00:59:04;;;;;;;;;16.67;16.33;;;;;16.65;59.16;101569.41;4960907;28;45312;-75
2022/10/13 01:01:30;;;;;;;;;17.67;15.67;;;;;16.43;58.98;101524.38;4976134;28;45269;-75
2022/10/13 01:03:56;;;;;;;;;17.67;16.67;;;;;16.75;59.05;101581.88;4960783;28;45556;-76
2022/10/13 01:06:22;;;;;;;;;18.00;16.00;;;;;16.73;59.11;101569.44;4959580;28;45692;-74
2022/10/13 01:08:47;;;;;;;;;14.33;14.33;;;;;16.71;59.03;101571.47;4959406;28;45418;-75
2022/10/13 01:11:37;;;;;;;;;18.00;15.67;;;;;16.68;59.18;101571.78;4959462;28;45422;-72
2022/10/13 01:14:44;;;;;;;;;19.00;16.00;;;;;16.71;59.33;101584.03;4958440;28;45233;-76
2022/10/13 01:17:31;;;;;;;;;15.33;12.67;;;;;16.62;59.51;101583.16;4949010;28;48953;-74
2022/10/13 01:20:36;;;;;;;;;16.33;15.00;;;;;16.68;59.35;101576.31;4958059;28;45603;-74
2022/10/13 01:23:22;;;;;;;;;17.00;17.00;;;;;16.66;59.68;101568.44;4958734;28;45513;-75
2022/10/13 01:26:07;;;;;;;;;17.33;15.67;;;;;16.64;59.79;101570.41;4959362;28;45408;-73
2022/10/13 01:28:42;;;;;;;;;10.00;10.00;;;;;16.63;59.77;101574.09;4959278;28;45565;-74
2022/10/13 01:31:43;;;;;;;;;15.67;14.00;;;;;16.26;59.96;101522.66;4973864;28;45517;-73
2022/10/13 01:34:22;;;;;;;;;18.67;16.33;;;;;16.40;60.21;101538.09;4973884;28;45509;-74
2022/10/13 01:36:53;;;;;;;;;15.33;14.00;;;;;15.76;60.50;101424.19;4959170;28;45459;-74
2022/10/13 01:39:39;;;;;;;;;15.67;13.33;;;;;16.13;60.22;101510.50;4973553;28;47454;-76
2022/10/13 01:42:14;;;;;;;;;16.33;15.33;;;;;16.24;60.66;101524.66;4958572;28;45400;-74
2022/10/13 01:44:47;;;;;;;;;18.00;15.00;;;;;16.36;61.08;101544.81;4958769;28;45192;-74
2022/10/13 01:47:16;;;;;;;;;22.33;19.00;;;;;16.17;61.00;101524.44;4958773;28;45325;-73
2022/10/13 01:49:43;;;;;;;;;12.67;11.67;;;;;16.23;61.11;101534.53;4973507;28;47664;-75
2022/10/13 01:52:14;;;;;;;;;17.33;15.33;;;;;16.27;61.07;101545.78;4958537;28;45503;-75
2022/10/13 01:54:40;;;;;;;;;20.67;18.33;;;;;16.40;61.17;101575.66;4958635;28;45540;-74
2022/10/13 01:57:33;;;;;;;;;22.00;19.00;;;;;16.34;61.45;101565.59;4973904;28;45296;-73
2022/10/13 02:00:06;;;;;;;;;16.67;14.33;;;;;16.32;61.60;101554.19;4958440;28;47345;-74
2022/10/13 02:02:36;;;;;;;;;17.33;17.33;;;;;15.97;61.97;101510.44;4958357;28;45495;-72
2022/10/13 02:05:08;;;;;;;;;18.33;17.00;;;;;16.26;61.75;101554.84;4958464;28;45349;-73
2022/10/13 02:07:43;;;;;;;;;21.00;19.00;;;;;16.26;61.68;101561.03;4958169;28;45464;-73
2022/10/13 02:10:42;;;;;;;;;18.00;16.33;;;;;16.27;61.94;101557.34;4958325;28;45245;-75
2022/10/13 02:13:13;;;;;;;;;18.00;16.33;;;;;16.29;62.00;101544.63;4930002;28;45514;-73
2022/10/13 02:15:53;;;;;;;;;22.33;20.00;;;;;16.03;61.93;101507.13;4956989;28;45457;-75
2022/10/13 02:18:25;;;;;;;;;17.67;16.67;;;;;16.12;61.95;101535.66;4958604;28;45558;-73
2022/10/13 02:20:51;;;;;;;;;21.00;18.33;;;;;16.27;62.24;101541.25;4957669;28;45693;-74
2022/10/13 02:23:18;;;;;;;;;21.67;20.00;;;;;15.87;62.20;101469.50;4956667;28;45370;-75
2022/10/13 02:25:44;;;;;;;;;19.00;18.67;;;;;15.86;62.39;101478.56;4958443;28;45496;-76
2022/10/13 02:28:13;;;;;;;;;19.33;17.33;;;;;15.79;62.60;101456.03;4958603;28;45544;-74
2022/10/13 02:30:39;;;;;;;;;18.33;17.00;;;;;15.91;62.26;101465.50;4958204;28;46091;-74
2022/10/13 02:33:06;;;;;;;;;20.00;18.00;;;;;15.39;62.11;101379.75;4958250;28;45386;-76
2022/10/13 02:35:31;;;;;;;;;20.33;17.00;;;;;16.27;62.58;101527.00;4957388;28;45518;-74
2022/10/13 02:37:57;;;;;;;;;20.67;20.67;;;;;16.19;62.75;101517.06;4957084;28;45561;-74
2022/10/13 02:40:22;;;;;;;;;19.33;18.67;;;;;15.65;62.51;101417.28;4958710;28;46417;-75
2022/10/13 02:42:48;;;;;;;;;18.67;17.67;;;;;16.21;62.63;101512.38;4958315;28;45497;-73
2022/10/13 02:45:13;;;;;;;;;18.67;17.33;;;;;16.23;62.56;101512.25;4957024;28;45324;-73
2022/10/13 02:47:39;;;;;;;;;16.00;15.00;;;;;16.18;62.44;101488.56;4956953;28;45578;-73
2022/10/13 02:50:06;;;;;;;;;14.00;14.00;;;;;15.50;61.87;101352.69;4957880;28;45686;-76
2022/10/13 02:52:31;;;;;;;;;17.67;16.67;;;;;15.90;62.43;101428.94;4957803;28;45264;-75
2022/10/13 02:54:56;;;;;;;;;14.00;14.00;;;;;16.21;62.99;101476.66;4958016;28;45443;-75
2022/10/13 02:57:22;;;;;;;;;17.33;16.67;;;;;15.63;62.71;101386.28;4958133;28;45287;-75
2022/10/13 02:59:47;;;;;;;;;13.33;13.33;;;;;16.25;62.83;101499.50;4957842;28;46565;-72
2022/10/13 03:02:13;;;;;;;;;13.33;11.33;;;;;16.06;62.75;101466.56;4960175;28;49939;-75
2022/10/13 03:04:39;;;;;;;;;16.33;13.67;;;;;16.06;62.89;101466.56;4962162;28;45287;-74
2022/10/13 03:07:04;;;;;;;;;16.00;14.33;;;;;15.62;62.63;101384.63;4960513;28;45228;-75
2022/10/13 03:09:29;;;;;;;;;14.00;14.00;;;;;16.03;62.45;101453.47;4940636;28;47383;-75
2022/10/13 03:11:55;;;;;;;;;11.00;11.00;;;;;16.37;62.73;101503.53;4958012;28;45218;-76
2022/10/13 03:14:20;;;;;;;;;13.67;13.67;;;;;16.35;62.60;101492.13;4957923;28;45479;-75
2022/10/13 03:16:45;;;;;;;;;12.33;12.33;;;;;16.33;62.86;101502.19;4958144;28;45485;-74
2022/10/13 03:19:11;;;;;;;;;16.00;12.00;;;;;16.04;62.90;101449.78;4956049;28;49804;-73
2022/10/13 03:21:37;;;;;;;;;15.00;15.00;;;;;16.05;62.89;101456.84;4958062;28;52415;-76
2022/10/13 03:24:04;;;;;;;;;13.67;11.67;;;;;15.68;62.73;101389.31;4958424;28;45368;-75
2022/10/13 03:26:30;;;;;;;;;18.00;17.00;;;;;16.21;63.08;101471.28;4957742;28;45465;-74
2022/10/13 03:28:55;;;;;;;;;18.00;16.67;;;;;16.26;63.25;101471.66;4957313;28;46723;-74
2022/10/13 03:31:21;;;;;;;;;14.67;13.33;;;;;16.09;62.87;101438.56;4956260;28;46391;-74
2022/10/13 03:33:46;;;;;;;;;23.00;17.00;;;;;16.12;63.14;101448.97;4957803;28;45700;-76
2022/10/13 03:36:12;;;;;;;;;15.33;11.33;;;;;15.93;62.93;101414.38;4957970;28;45370;-76
2022/10/13 03:38:38;;;;;;;;;11.33;11.33;;;;;16.31;62.33;101480.06;4957184;28;45792;-75
2022/10/13 03:41:06;;;;;;;;;13.33;11.67;;;;;16.31;62.65;101474.69;4955996;28;45500;-75
2022/10/13 03:43:31;;;;;;;;;17.00;16.00;;;;;15.84;62.69;101392.06;4956100;28;45375;-73
2022/10/13 03:45:59;;;;;;;;;16.00;15.33;;;;;16.13;62.59;101448.81;4957742;28;45248;-75
2022/10/13 03:48:25;;;;;;;;;15.00;15.00;;;;;16.09;63.16;101430.53;4960818;28;45584;-75
2022/10/13 03:50:51;;;;;;;;;16.67;12.67;;;;;16.20;63.26;101451.66;4960803;28;45490;-74
2022/10/13 03:53:17;;;;;;;;;17.00;13.67;;;;;15.92;63.19;101413.53;4959495;28;45320;-75
2022/10/13 03:55:49;;;;;;;;;13.33;12.00;;;;;15.80;63.14;101388.00;4960733;28;45557;-75
2022/10/13 03:58:14;;;;;;;;;15.33;15.00;;;;;16.20;63.23;101421.31;4960316;28;46335;-75
2022/10/13 04:00:40;;;;;;;;;16.67;13.67;;;;;15.76;62.96;101370.56;4960356;28;45298;-74
2022/10/13 04:03:05;;;;;;;;;11.00;10.00;;;;;16.19;63.14;101441.09;4959024;28;45437;-75
2022/10/13 04:05:33;;;;;;;;;9.00;8.33;;;;;15.84;63.10;101405.47;4959233;28;45332;-75
2022/10/13 04:07:58;;;;;;;;;11.33;10.33;;;;;16.17;63.25;101435.91;4958433;28;48660;-76
2022/10/13 04:10:23;;;;;;;;;17.33;13.33;;;;;16.19;63.24;101436.56;4959658;28;51348;-75
2022/10/13 04:12:49;;;;;;;;;13.67;12.33;;;;;16.06;63.16;101426.34;4960367;28;45252;-73
2022/10/13 04:15:14;;;;;;;;;12.33;11.33;;;;;16.19;63.25;101441.09;4960415;28;45452;-71
2022/10/13 04:17:39;;;;;;;;;14.33;14.33;;;;;16.20;62.66;101435.56;4959957;28;46505;-75
2022/10/13 04:20:05;;;;;;;;;13.33;13.33;;;;;16.24;62.87;101428.06;4974911;28;46144;-73
2022/10/13 04:22:31;;;;;;;;;12.00;12.00;;;;;15.85;62.94;101374.97;4974858;28;45561;-73
2022/10/13 04:24:56;;;;;;;;;12.33;12.33;;;;;16.03;62.74;101415.94;4960588;28;45259;-74
2022/10/13 04:27:22;;;;;;;;;14.00;12.67;;;;;16.12;62.94;101425.66;4960103;28;45554;-76
2022/10/13 04:29:48;;;;;;;;;14.33;11.33;;;;;16.31;62.52;101461.28;4975157;28;45351;-75
2022/10/13 04:32:13;;;;;;;;;14.67;13.33;;;;;16.20;62.76;101427.53;4960751;28;45930;-73
2022/10/13 04:34:38;;;;;;;;;16.00;12.67;;;;;16.05;62.42;101405.88;4974976;28;45339;-75
2022/10/13 04:37:04;;;;;;;;;14.33;14.00;;;;;15.76;62.45;101370.56;4960096;28;46769;-73
2022/10/13 04:39:29;;;;;;;;;10.00;9.00;;;;;16.31;62.67;101462.09;4959688;28;45506;-74
2022/10/13 04:41:54;;;;;;;;;16.33;12.67;;;;;16.34;62.56;101455.56;4958306;28;45429;-75
2022/10/13 04:44:20;;;;;;;;;17.00;16.00;;;;;16.06;62.75;101409.41;4960414;28;45421;-76
2022/10/13 04:46:45;;;;;;;;;13.33;12.67;;;;;16.36;62.45;101453.56;4958341;28;47784;-74
2022/10/13 04:49:11;;;;;;;;;16.00;13.33;;;;;15.68;62.70;101346.44;4959998;28;45405;-72
2022/10/13 04:51:36;;;;;;;;;12.67;12.33;;;;;16.13;62.82;101429.19;4960230;28;45542;-74
2022/10/13 04:54:04;;;;;;;;;16.67;13.00;;;;;16.21;62.85;101449.81;4958630;28;45332;-76
2022/10/13 04:56:29;;;;;;;;;15.00;12.67;;;;;15.87;63.01;101397.09;4960697;28;46441;-74
2022/10/13 04:58:55;;;;;;;;;17.00;16.00;;;;;15.67;63.16;101368.88;4957994;28;45433;-75
2022/10/13 05:01:23;;;;;;;;;12.67;11.67;;;;;15.34;63.17;101323.16;4959058;28;45454;-73
2022/10/13 05:03:57;;;;;;;;;15.33;14.00;;;;;16.02;63.30;101442.91;4958735;28;45529;-72
2022/10/13 05:06:28;;;;;;;;;14.00;13.00;;;;;16.08;63.38;101444.94;4959640;28;46463;-75
2022/10/13 05:08:54;;;;;;;;;13.00;13.00;;;;;16.06;63.62;101438.91;4959303;28;45517;-76
2022/10/13 05:11:20;;;;;;;;;8.33;6.00;;;;;16.07;63.58;101433.38;4959900;28;45314;-74
2022/10/13 05:13:47;;;;;;;;;12.33;12.33;;;;;15.88;63.73;101401.47;4959477;28;45340;-76
2022/10/13 05:16:15;;;;;;;;;13.00;12.33;;;;;15.85;63.54;101406.31;4959436;28;46507;-74
2022/10/13 05:18:41;;;;;;;;;14.67;13.67;;;;;16.05;63.11;101429.19;4957722;28;45419;-74
2022/10/13 05:21:08;;;;;;;;;18.00;13.00;;;;;16.07;63.45;101433.38;4959197;28;45323;-74
2022/10/13 05:23:33;;;;;;;;;19.67;17.00;;;;;15.62;63.27;101360.50;4959154;28;45213;-74
2022/10/13 05:26:08;;;;;;;;;12.00;10.67;;;;;16.04;63.79;101432.88;4959434;28;46091;-77
2022/10/13 05:28:34;;;;;;;;;14.67;11.33;;;;;15.53;63.62;101370.28;4963076;28;45249;-77
2022/10/13 05:31:17;;;;;;;;;9.67;8.67;;;;;15.94;63.81;101432.16;4967024;28;45588;-75
2022/10/13 05:33:44;;;;;;;;;17.33;15.00;;;;;15.20;64.02;101296.97;4983428;28;45340;-76
2022/10/13 05:36:15;;;;;;;;;14.00;9.67;;;;;15.75;64.45;101401.91;4977633;28;47873;-76
2022/10/13 05:38:41;;;;;;;;;15.33;13.33;;;;;15.63;64.56;101389.81;4971078;28;45499;-75
2022/10/13 05:41:12;;;;;;;;;11.67;9.00;;;;;15.55;64.31;101370.13;4959523;28;45439;-77
2022/10/13 05:43:41;;;;;;;;;13.67;13.67;;;;;15.85;64.29;101415.19;4960588;28;45319;-77
2022/10/13 05:46:08;;;;;;;;;14.33;13.00;;;;;15.64;64.53;101366.53;4977579;28;47358;-76
2022/10/13 05:48:34;;;;;;;;;20.00;17.33;;;;;15.87;64.69;101398.94;4978718;28;45411;-74
2022/10/13 05:51:02;;;;;;;;;13.00;13.00;;;;;15.49;64.76;101348.34;4967848;28;45911;-78
2022/10/13 05:53:33;;;;;;;;;12.33;12.33;;;;;15.70;64.69;101385.47;4981099;28;45415;-78
2022/10/13 05:56:05;;;;;;;;;16.00;14.67;;;;;15.84;64.60;101394.75;4977578;28;48770;-75
2022/10/13 05:58:39;;;;;;;;;14.67;14.00;;;;;15.69;64.38;101358.84;4962691;28;45280;-75
2022/10/13 06:01:07;;;;;;;;;16.67;14.67;;;;;15.87;64.76;101391.75;4973036;28;45546;-77
2022/10/13 06:03:33;;;;;;;;;16.67;15.00;;;;;15.93;64.44;101393.75;4977647;28;45575;-79
2022/10/13 06:05:59;;;;;;;;;14.67;14.33;;;;;15.68;64.45;101358.00;4977308;28;47958;-76
2022/10/13 06:08:24;;;;;;;;;14.67;13.33;;;;;15.98;64.44;101410.19;4978635;28;46397;-76
2022/10/13 06:10:50;;;;;;;;;15.00;13.00;;;;;15.58;64.26;101349.19;4960498;28;45604;-76
2022/10/13 06:13:15;;;;;;;;;12.33;11.00;;;;;15.93;64.45;101403.66;4943120;28;45629;-76
2022/10/13 06:15:40;;;;;;;;;14.00;12.33;;;;;15.85;64.49;101384.88;4959437;28;46205;-76
2022/10/13 06:18:07;;;;;;;;;15.67;15.67;;;;;15.99;64.45;101411.88;4957789;28;45415;-76
2022/10/13 06:20:33;;;;;;;;;17.00;14.33;;;;;15.69;64.53;101358.84;4971247;28;45506;-75
2022/10/13 06:23:01;;;;;;;;;15.00;11.33;;;;;15.98;64.42;101406.66;4952965;28;45609;-75
2022/10/13 06:25:28;;;;;;;;;15.33;13.00;;;;;15.88;64.68;101400.63;4957455;28;48080;-74
2022/10/13 06:27:55;;;;;;;;;16.00;12.67;;;;;14.85;64.45;101231.88;4953345;28;45267;-75
2022/10/13 06:30:21;;;;;;;;;11.33;11.33;;;;;15.88;64.25;101400.63;4937967;28;45483;-74
2022/10/13 06:32:46;;;;;;;;;11.67;10.67;;;;;15.94;64.44;101400.81;4941861;28;45276;-75
2022/10/13 06:35:11;;;;;;;;;13.67;10.00;;;;;15.74;64.29;101361.84;4940732;28;45603;-76
2022/10/13 06:37:37;;;;;;;;;16.67;12.33;;;;;15.98;64.25;101395.94;4939694;28;45283;-74
2022/10/13 06:40:02;;;;;;;;;12.00;10.33;;;;;15.63;63.92;101333.53;4941121;28;45340;-76
2022/10/13 06:42:30;;;;;;;;;10.33;9.00;;;;;15.73;63.87;101349.47;4940277;28;45362;-75
2022/10/13 06:44:56;;;;;;;;;16.00;11.33;;;;;15.79;63.71;101362.19;4940616;28;46536;-76
2022/10/13 06:47:21;;;;;;;;;11.67;10.00;;;;;15.92;63.95;101392.09;4954773;28;45623;-76
2022/10/13 06:49:47;;;;;;;;;10.67;10.67;;;;;15.75;63.63;101347.44;4940473;28;45438;-77
2022/10/13 06:52:12;;;;;;;;;13.00;11.67;;;;;15.87;63.77;101382.84;4940574;28;45228;-74
2022/10/13 06:54:37;;;;;;;;;9.67;9.67;;;;;16.03;63.91;101405.22;4939034;28;46523;-75
2022/10/13 06:57:05;;;;;;;;;12.33;9.33;;;;;15.89;63.86;101376.31;4939184;28;45248;-76
2022/10/13 06:59:31;;;;;;;;;7.33;6.00;;;;;15.99;64.02;101397.63;4939567;28;45309;-78
2022/10/13 07:01:56;;;;;;;;;12.67;10.67;;;;;15.95;64.00;101404.31;4941922;28;45433;-76
2022/10/13 07:04:22;;;;;;;;;12.33;10.33;;;;;15.22;64.14;101292.31;4941404;28;46197;-76
2022/10/13 07:06:48;;;;;;;;;10.33;10.33;;;;;15.96;63.95;101416.72;4952315;28;45655;-78
2022/10/13 07:09:13;;;;;;;;;9.67;8.00;;;;;15.65;63.95;101368.19;4938976;28;45496;-78
2022/10/13 07:11:39;;;;;;;;;11.67;10.33;;;;;15.94;63.66;101408.84;4941220;28;45516;-77
2022/10/13 07:14:04;;;;;;;;;23.67;18.00;;;;;15.75;63.57;101363.53;4954646;28;47971;-76
2022/10/13 07:16:30;;;;;;;;;8.00;8.00;;;;;15.68;63.53;101358.00;4939076;28;45475;-78
2022/10/13 07:18:55;;;;;;;;;18.33;12.00;;;;;15.65;63.68;101352.13;4937436;28;45551;-77
2022/10/13 07:21:21;;;;;;;;;17.00;14.67;;;;;15.84;63.48;101367.09;4940671;28;45567;-74
2022/10/13 07:23:47;;;;;;;;;10.33;8.00;;;;;15.88;63.74;101380.00;4949021;28;46504;-75
2022/10/13 07:26:14;;;;;;;;;11.00;10.00;;;;;15.74;63.23;101365.38;4956531;28;45441;-77
2022/10/13 07:28:42;;;;;;;;;11.33;9.67;;;;;16.24;63.64;101434.25;4956294;28;45260;-76
2022/10/13 07:31:16;;;;;;;;;7.00;5.67;;;;;14.67;63.34;101164.22;4945556;28;45435;-76
2022/10/13 07:33:43;;;;;;;;;8.67;8.67;;;;;16.30;63.18;101422.88;4941194;28;46313;-75
2022/10/13 07:36:10;;;;;;;;;10.00;9.00;;;;;16.30;63.43;101422.03;4961272;28;45544;-76
2022/10/13 07:38:36;;;;;;;;;10.00;9.00;;;;;16.37;63.41;101429.25;4945824;28;45493;-76
2022/10/13 07:41:11;;;;;;;;;5.67;5.67;;;;;16.03;63.04;101364.97;4940755;28;45294;-76
2022/10/13 07:43:36;;;;;;;;;13.33;11.33;;;;;16.04;62.65;101382.75;4941005;28;45870;-75
2022/10/13 07:46:04;;;;;;;;;8.00;7.33;;;;;16.31;62.95;101407.59;4939118;28;45591;-76
2022/10/13 07:48:30;;;;;;;;;8.33;8.33;;;;;16.08;63.18;101388.63;4952863;28;45339;-78
2022/10/13 07:50:56;;;;;;;;;7.00;7.00;;;;;16.15;63.18;101412.94;4941310;28;45428;-80
2022/10/13 07:53:22;;;;;;;;;14.00;11.67;;;;;16.27;62.54;101406.25;4940840;28;46567;-77
2022/10/13 07:55:47;;;;;;;;;14.67;10.00;;;;;16.46;62.38;101422.06;4960998;28;45476;-76
2022/10/13 07:58:13;;;;;;;;;5.67;5.00;;;;;16.29;61.58;101391.66;4965280;28;45485;-76
2022/10/13 08:00:38;;;;;;;;;9.67;8.67;;;;;16.10;62.06;101357.94;4949933;28;45252;-75
2022/10/13 08:03:04;;;;;;;;;7.67;7.67;;;;;16.62;61.23;101427.44;4944768;28;53466;-77
2022/10/13 08:05:29;;;;;;;;;9.33;6.00;;;;;16.64;61.22;101409.31;4943437;28;45942;-76
2022/10/13 08:07:55;;;;;;;;;7.00;7.00;;;;;16.86;60.84;101436.53;4942085;28;45300;-78
2022/10/13 08:10:20;;;;;;;;;6.00;6.00;;;;;16.47;60.86;101382.63;4957141;28;45528;-75
2022/10/13 08:12:46;;;;;;;;;7.67;7.67;;;;;16.65;61.02;101413.69;4955686;28;47480;-77
2022/10/13 08:15:12;;;;;;;;;8.00;8.00;;;;;16.88;60.72;101456.00;4955326;28;45631;-75
2022/10/13 08:17:37;;;;;;;;;8.67;7.33;;;;;16.79;60.85;101441.72;4950324;28;45425;-78
2022/10/13 08:20:04;;;;;;;;;8.67;6.00;;;;;16.78;60.55;101436.53;4951102;28;45505;-77
2022/10/13 08:22:33;;;;;;;;;11.67;7.67;;;;;16.86;60.75;101455.34;4910351;28;1216947;-76
2022/10/13 08:24:59;;;;;;;;;10.33;8.33;;;;;16.33;60.57;101362.66;4953482;28;45485;-77
2022/10/13 08:27:25;;;;;;;;;7.33;7.33;;;;;16.25;60.85;101355.44;4956227;28;45384;-76
2022/10/13 08:29:50;;;;;;;;;10.33;6.00;;;;;16.67;60.58;101422.44;4942012;28;45562;-78
2022/10/13 08:32:19;;;;;;;;;6.33;6.33;;;;;15.92;60.62;101284.81;4945728;28;46106;-76
2022/10/13 08:34:45;;;;;;;;;8.33;6.00;;;;;16.31;60.37;101352.09;4980944;28;45323;-77
2022/10/13 08:37:16;;;;;;;;;9.00;6.00;;;;;15.18;60.60;101168.56;4960924;28;45356;-78
2022/10/13 08:39:42;;;;;;;;;10.00;9.33;;;;;16.71;60.36;101421.09;4960153;28;45422;-76
2022/10/13 08:42:17;;;;;;;;;7.67;7.67;;;;;16.92;60.28;101460.03;4963747;28;47559;-76
2022/10/13 08:45:06;;;;;;;;;6.33;5.33;;;;;16.86;59.88;101439.22;4957683;28;45839;-76
2022/10/13 08:47:45;;;;;;;;;7.67;5.67;;;;;17.12;59.65;101456.00;4939126;28;45285;-76
2022/10/13 08:50:18;;;;;;;;;5.00;5.00;;;;;16.84;59.67;101400.97;4939366;28;44863;-75
2022/10/13 08:52:46;;;;;;;;;8.00;8.00;;;;;16.48;59.54;101331.47;4944037;28;46281;-77
2022/10/13 08:55:28;;;;;;;;;8.00;4.00;;;;;17.02;59.26;101412.38;4941158;28;45461;-77
2022/10/13 08:57:54;;;;;;;;;5.67;4.33;;;;;17.24;58.99;101433.16;4955742;28;45356;-76
2022/10/13 09:00:19;;;;;;;;;8.67;6.33;;;;;17.15;58.57;101401.09;4947716;28;45558;-76
2022/10/13 09:02:45;;;;;;;;;8.00;6.33;;;;;17.22;58.35;101399.38;4962695;28;46082;-75
2022/10/13 09:05:26;;;;;;;;;5.00;5.00;;;;;17.67;58.31;101449.84;4959909;28;45591;-77
2022/10/13 09:07:53;;;;;;;;;6.00;5.33;;;;;17.39;57.86;101371.44;4956545;28;45211;-76
2022/10/13 09:10:19;;;;;;;;;8.67;6.00;;;;;17.67;57.48;101404.13;4941832;28;45537;-77
2022/10/13 09:12:44;;;;;;;;;6.33;5.33;;;;;17.89;57.14;101424.06;4956812;28;48463;-77
2022/10/13 09:15:11;;;;;;;;;8.67;8.00;;;;;17.79;56.95;101396.53;4962233;28;45520;-77
2022/10/13 09:17:39;;;;;;;;;5.33;5.00;;;;;18.18;56.47;101443.06;4946428;28;45504;-77
2022/10/13 09:20:22;;;;;;;;;9.33;6.33;;;;;18.25;56.35;101443.22;4960778;28;45580;-77
2022/10/13 09:23:04;;;;;;;;;7.00;6.33;;;;;18.35;56.39;101441.13;4961356;28;48131;-77
2022/10/13 09:25:41;;;;;;;;;4.67;4.67;;;;;18.01;56.19;101386.84;4954983;28;45499;-76
2022/10/13 09:28:15;;;;;;;;;6.33;6.33;;;;;17.89;56.16;101364.88;4939304;28;45522;-76
2022/10/13 09:30:43;;;;;;;;;8.33;6.33;;;;;18.48;56.12;101449.47;4942349;28;45485;-79
2022/10/13 09:33:11;;;;;;;;;4.33;4.33;;;;;18.47;55.79;101437.03;4938807;28;47957;-79
2022/10/13 09:35:41;;;;;;;;;4.33;3.00;;;;;18.29;55.85;101406.03;4941214;28;45469;-77
2022/10/13 09:38:20;;;;;;;;;5.67;5.67;;;;;18.23;55.76;101396.81;4956465;28;45561;-76
2022/10/13 09:40:58;;;;;;;;;4.00;4.00;;;;;18.39;55.73;101439.75;4936230;28;45484;-77
2022/10/13 09:43:31;;;;;;;;;3.67;3.67;;;;;18.36;56.74;101423.97;4937491;28;46113;-76
2022/10/13 09:45:58;;;;;;;;;5.00;4.00;;;;;18.03;56.88;101355.22;4924245;28;46080;-77
2022/10/13 09:48:35;;;;;;;;;5.00;5.00;;;;;18.29;57.42;101396.09;4940246;28;45335;-76
2022/10/13 09:51:01;;;;;;;;;4.00;4.00;;;;;17.87;58.43;101332.78;4939504;28;45465;-77
2022/10/13 09:53:31;;;;;;;;;4.00;4.00;;;;;18.38;58.54;101421.94;4939994;28;45406;-76
2022/10/13 09:56:07;;;;;;;;;5.00;5.00;;;;;18.37;59.25;101431.03;4939944;28;45406;-75
2022/10/13 09:58:39;;;;;;;;;5.00;5.00;;;;;18.16;59.10;101402.06;4939776;28;45549;-78
2022/10/13 10:01:05;;;;;;;;;3.33;3.33;;;;;18.26;59.50;101433.31;4938885;28;45921;-75
2022/10/13 10:03:34;;;;;;;;;5.00;3.33;;;;;17.61;59.55;101332.22;4939199;28;46420;-78
2022/10/13 10:06:04;;;;;;;;;6.00;6.00;;;;;18.31;59.52;101447.91;4940238;28;45455;-78
2022/10/13 10:08:50;;;;;;;;;5.67;5.67;;;;;18.08;59.86;101409.34;4942016;28;45417;-75
2022/10/13 10:11:42;;;;;;;;;4.33;4.33;;;;;18.08;60.05;101428.19;4935759;28;45228;-75
2022/10/13 10:14:25;;;;;;;;;6.00;6.00;;;;;17.96;60.61;101433.09;4939389;28;46326;-78
2022/10/13 10:17:21;;;;;;;;;4.67;4.33;;;;;16.96;60.14;101259.91;4954104;28;45457;-75
2022/10/13 10:20:26;;;;;;;;;4.00;4.00;;;;;18.12;60.36;101438.41;4960055;28;45376;-76
2022/10/13 10:23:32;;;;;;;;;4.33;4.00;;;;;18.22;60.31;101432.81;4952317;28;45332;-78
2022/10/13 10:26:08;;;;;;;;;5.00;4.00;;;;;18.10;60.22;101412.69;4944204;28;48643;-77
2022/10/13 10:28:49;;;;;;;;;8.67;6.00;;;;;16.91;60.06;101222.84;4959347;28;46272;-76
2022/10/13 10:31:52;;;;;;;;;4.00;4.00;;;;;18.19;60.22;101431.28;4962215;28;45558;-78
2022/10/13 10:34:36;;;;;;;;;5.00;4.33;;;;;15.89;59.86;101053.72;4943895;28;45506;-75
2022/10/13 10:37:07;;;;;;;;;4.00;4.00;;;;;18.12;60.50;101424.13;4959438;28;45597;-77
2022/10/13 10:39:46;;;;;;;;;6.67;6.00;;;;;17.63;60.26;101347.19;4959578;28;45496;-76
2022/10/13 10:42:23;;;;;;;;;4.00;4.00;;;;;17.72;60.18;101356.06;4954811;28;45274;-81
2022/10/13 10:44:52;;;;;;;;;8.00;7.00;;;;;18.18;60.26;101418.03;4948927;28;45355;-77
2022/10/13 10:47:25;;;;;;;;;8.33;7.00;;;;;18.21;60.25;101414.97;4963168;28;48742;-77
2022/10/13 10:50:05;;;;;;;;;7.67;5.67;;;;;17.82;60.17;101353.13;4957579;28;45372;-77
2022/10/13 10:52:52;;;;;;;;;6.00;6.00;;;;;17.93;60.43;101369.72;4952042;28;45691;-76
2022/10/13 10:55:45;;;;;;;;;5.33;5.33;;;;;18.20;60.33;101414.13;4966972;28;45340;-77
2022/10/13 10:58:22;;;;;;;;;6.00;5.33;;;;;18.21;60.15;101410.41;4959681;28;47097;-77
2022/10/13 11:01:18;;;;;;;;;6.00;4.33;;;;;18.20;60.22;101419.50;4961814;28;45261;-77
2022/10/13 11:04:22;;;;;;;;;6.33;5.67;;;;;18.14;60.30;101414.00;4962302;28;45361;-77
2022/10/13 11:06:47;;;;;;;;;5.33;5.33;;;;;18.09;60.43;101411.03;4942412;28;45549;-77
2022/10/13 11:09:13;;;;;;;;;8.00;8.00;;;;;17.81;60.77;101364.91;4961219;28;45479;-76
2022/10/13 11:11:41;;;;;;;;;7.00;4.67;;;;;18.00;60.37;101391.38;4964943;28;45310;-80
2022/10/13 11:14:06;;;;;;;;;7.00;6.67;;;;;18.14;60.57;101406.78;4966360;28;45269;-78
2022/10/13 11:16:36;;;;;;;;;4.67;4.67;;;;;18.21;60.35;101410.41;4965869;28;45429;-78
2022/10/13 11:19:34;;;;;;;;;5.33;3.33;;;;;18.11;60.22;101387.47;4962656;28;46003;-76
2022/10/13 11:21:59;;;;;;;;;7.00;6.00;;;;;18.22;60.24;101393.28;4961274;28;45412;-78
2022/10/13 11:24:40;;;;;;;;;7.00;5.00;;;;;18.27;60.11;101391.91;4959986;28;45372;-77
2022/10/13 11:27:14;;;;;;;;;8.00;6.33;;;;;18.32;60.18;101392.19;4961088;28;45463;-74